createdAt,value
2022-12-15T00:00:21.478Z,0.24
2022-12-15T00:03:08.214Z,0.17
2022-12-15T00:05:54.141Z,0.23
2022-12-15T00:08:40.442Z,0.30
2022-12-15T00:11:26.709Z,0.44
2022-12-15T00:14:13.252Z,0.32
2022-12-15T00:16:59.264Z,0.39
2022-12-15T00:19:45.350Z,0.50
2022-12-15T00:22:31.505Z,0.53
2022-12-15T00:25:17.654Z,0.48
2022-12-15T00:28:03.490Z,0.51
2022-12-15T00:30:50.189Z,0.59
2022-12-15T00:33:36.276Z,0.53
2022-12-15T00:36:22.362Z,0.74
2022-12-15T00:38:49.709Z,0.59
2022-12-15T00:41:18.359Z,0.78
2022-12-15T00:43:46.464Z,0.91
2022-12-15T00:46:32.772Z,0.89
2022-12-15T00:49:01.120Z,1.05
2022-12-15T00:51:47.386Z,1.05
2022-12-15T00:54:33.516Z,1.10
2022-12-15T00:57:19.723Z,1.26
2022-12-15T01:00:05.768Z,1.40
2022-12-15T01:02:51.847Z,1.41
2022-12-15T01:05:38.377Z,1.22
2022-12-15T01:08:24.183Z,0.98
2022-12-15T01:11:11.782Z,0.71
2022-12-15T01:13:59.077Z,0.93
2022-12-15T01:16:45.342Z,1.08
2022-12-15T01:19:31.267Z,1.05
2022-12-15T01:21:58.931Z,1.08
2022-12-15T01:24:26.305Z,1.09
2022-12-15T01:26:53.733Z,1.02
2022-12-15T01:29:21.415Z,0.95
2022-12-15T01:31:49.789Z,0.86
2022-12-15T01:34:20.275Z,0.96
2022-12-15T01:36:48.184Z,0.78
2022-12-15T01:39:16.329Z,0.80
2022-12-15T01:41:43.786Z,0.80
2022-12-15T01:44:22.566Z,0.86
2022-12-15T01:46:53.963Z,0.90
2022-12-15T01:49:26.939Z,0.91
2022-12-15T01:52:00.453Z,0.97
2022-12-15T01:54:33.827Z,0.94
2022-12-15T01:57:08.191Z,0.93
2022-12-15T01:59:48.978Z,0.87
2022-12-15T02:02:18.027Z,0.80
2022-12-15T02:04:46.176Z,0.72
2022-12-15T02:07:14.831Z,0.74
2022-12-15T02:09:44.703Z,0.68
2022-12-15T02:12:18.589Z,0.65
2022-12-15T02:15:09.980Z,0.69
2022-12-15T02:17:43.869Z,0.74
2022-12-15T02:20:23.477Z,0.71
2022-12-15T02:23:15.631Z,0.67
2022-12-15T02:26:06.198Z,0.70
2022-12-15T02:28:56.798Z,0.53
2022-12-15T02:31:52.317Z,0.64
2022-12-15T02:34:53.841Z,0.62
2022-12-15T02:37:27.564Z,0.61
2022-12-15T02:39:55.180Z,0.57
2022-12-15T02:42:23.820Z,0.60
2022-12-15T02:44:56.841Z,0.64
2022-12-15T02:47:46.704Z,0.62
2022-12-15T02:50:49.759Z,0.61
2022-12-15T02:53:23.440Z,0.58
2022-12-15T02:56:06.151Z,0.62
2022-12-15T02:58:45.133Z,0.64
2022-12-15T03:01:24.125Z,0.73
2022-12-15T03:03:53.023Z,0.76
2022-12-15T03:06:20.831Z,0.69
2022-12-15T03:08:49.180Z,0.76
2022-12-15T03:11:17.028Z,0.67
2022-12-15T03:13:44.800Z,0.64
2022-12-15T03:16:12.176Z,0.70
2022-12-15T03:18:40.501Z,0.73
2022-12-15T03:21:08.636Z,0.73
2022-12-15T03:23:35.991Z,0.73
2022-12-15T03:26:03.780Z,0.70
2022-12-15T03:28:31.255Z,0.69
2022-12-15T03:30:58.620Z,0.67
2022-12-15T03:33:26.310Z,0.63
2022-12-15T03:35:53.596Z,0.63
2022-12-15T03:38:21.145Z,0.67
2022-12-15T03:40:48.703Z,0.60
2022-12-15T03:43:16.252Z,0.57
2022-12-15T03:45:43.745Z,0.63
2022-12-15T03:48:11.435Z,0.70
2022-12-15T03:50:38.708Z,0.63
2022-12-15T03:53:06.516Z,0.64
2022-12-15T03:55:35.399Z,0.63
2022-12-15T03:58:03.058Z,0.52
2022-12-15T04:00:30.511Z,0.55
2022-12-15T04:02:58.604Z,0.60
2022-12-15T04:05:31.808Z,0.57
2022-12-15T04:08:00.857Z,0.55
2022-12-15T04:10:34.367Z,0.59
2022-12-15T04:13:10.931Z,0.72
2022-12-15T04:15:40.652Z,0.71
2022-12-15T04:18:10.886Z,0.84
2022-12-15T04:20:39.437Z,0.90
2022-12-15T04:23:09.576Z,0.92
2022-12-15T04:25:56.262Z,0.96
2022-12-15T04:28:42.587Z,0.96
2022-12-15T04:31:31.894Z,0.96
2022-12-15T04:34:21.796Z,1.03
2022-12-15T04:37:10.800Z,1.13
2022-12-15T04:40:01.226Z,1.12
2022-12-15T04:42:50.491Z,1.21
2022-12-15T04:45:39.296Z,1.29
2022-12-15T04:48:25.532Z,1.29
2022-12-15T04:51:11.524Z,1.32
2022-12-15T04:53:57.753Z,1.25
2022-12-15T04:56:43.987Z,1.44
2022-12-15T04:59:30.171Z,1.34
2022-12-15T05:02:16.019Z,1.45
2022-12-15T05:05:02.485Z,1.32
2022-12-15T05:07:49.042Z,1.27
2022-12-15T05:10:35.680Z,1.33
2022-12-15T05:13:27.155Z,1.29
2022-12-15T05:16:13.644Z,1.36
2022-12-15T05:18:59.648Z,1.25
2022-12-15T05:21:45.781Z,1.24
2022-12-15T05:24:31.710Z,1.25
2022-12-15T05:27:17.806Z,1.09
2022-12-15T05:30:03.676Z,1.19
2022-12-15T05:32:33.196Z,1.28
2022-12-15T05:35:01.536Z,1.47
2022-12-15T05:37:30.468Z,1.49
2022-12-15T05:39:58.398Z,1.73
2022-12-15T05:42:25.733Z,1.46
2022-12-15T05:44:53.081Z,1.52
2022-12-15T05:47:20.923Z,1.51
2022-12-15T05:49:48.221Z,1.44
2022-12-15T05:52:15.580Z,1.48
2022-12-15T05:54:43.271Z,1.61
2022-12-15T05:57:10.979Z,1.70
2022-12-15T05:59:38.409Z,1.77
2022-12-15T06:02:06.367Z,1.82
2022-12-15T06:04:34.096Z,1.85
2022-12-15T06:07:01.478Z,2.03
2022-12-15T06:09:29.318Z,1.88
2022-12-15T06:11:57.248Z,1.79
2022-12-15T06:14:24.598Z,2.17
2022-12-15T06:16:52.009Z,1.96
2022-12-15T06:19:20.441Z,1.89
2022-12-15T06:21:48.282Z,2.22
2022-12-15T06:24:15.856Z,2.17
2022-12-15T06:26:44.715Z,2.06
2022-12-15T06:29:13.465Z,2.15
2022-12-15T06:31:41.679Z,2.25
2022-12-15T06:34:12.620Z,2.32
2022-12-15T06:36:40.414Z,2.30
2022-12-15T06:39:10.816Z,2.12
2022-12-15T06:41:39.395Z,2.26
2022-12-15T06:44:06.715Z,2.33
2022-12-15T06:46:35.227Z,2.27
2022-12-15T06:49:03.442Z,2.39
2022-12-15T06:51:30.865Z,2.49
2022-12-15T06:53:58.154Z,2.38
2022-12-15T06:56:33.069Z,2.40
2022-12-15T06:59:03.555Z,2.21
2022-12-15T07:01:32.379Z,2.28
2022-12-15T07:04:01.784Z,2.34
2022-12-15T07:06:36.614Z,2.27
2022-12-15T07:09:08.000Z,2.54
2022-12-15T07:11:36.315Z,2.49
2022-12-15T07:14:03.927Z,2.61
2022-12-15T07:16:31.904Z,2.60
2022-12-15T07:18:59.313Z,2.90
2022-12-15T07:21:26.743Z,3.02
2022-12-15T07:23:56.328Z,2.89
2022-12-15T07:26:24.605Z,2.83
2022-12-15T07:28:53.904Z,2.75
2022-12-15T07:31:22.882Z,2.84
2022-12-15T07:33:52.430Z,2.84
2022-12-15T07:36:20.992Z,3.11
2022-12-15T07:38:50.373Z,2.95
2022-12-15T07:41:20.027Z,3.19
2022-12-15T07:43:48.074Z,3.08
2022-12-15T07:46:17.738Z,3.02
2022-12-15T07:48:50.433Z,3.13
2022-12-15T07:51:20.849Z,3.43
2022-12-15T07:53:50.342Z,3.39
2022-12-15T07:56:18.820Z,3.27
2022-12-15T07:58:46.965Z,3.06
2022-12-15T08:01:15.736Z,3.13
2022-12-15T08:03:43.765Z,3.28
2022-12-15T08:06:13.285Z,3.17
2022-12-15T08:08:43.898Z,3.25
2022-12-15T08:11:14.376Z,3.18
2022-12-15T08:16:30.833Z,3.26
2022-12-15T08:18:58.398Z,3.37
2022-12-15T08:21:26.007Z,3.51
2022-12-15T08:23:53.968Z,3.71
2022-12-15T08:26:26.610Z,3.53
2022-12-15T08:29:11.710Z,3.43
2022-12-15T08:31:45.316Z,3.65
2022-12-15T08:34:13.112Z,3.87
2022-12-15T08:36:40.575Z,3.91
2022-12-15T08:39:07.976Z,4.01
2022-12-15T08:41:35.694Z,4.16
2022-12-15T08:44:03.254Z,3.81
2022-12-15T08:46:34.281Z,3.81
2022-12-15T08:49:02.804Z,3.87
2022-12-15T08:51:32.461Z,4.33
2022-12-15T08:54:01.300Z,4.65
2022-12-15T08:56:29.620Z,5.02
2022-12-15T08:58:59.758Z,5.32
2022-12-15T09:01:29.174Z,4.89
2022-12-15T09:03:57.335Z,5.26
2022-12-15T09:06:33.383Z,5.36
2022-12-15T09:09:05.490Z,5.22
2022-12-15T09:11:33.325Z,5.18
2022-12-15T09:14:01.032Z,5.25
2022-12-15T09:16:28.982Z,5.39
2022-12-15T09:18:58.125Z,5.14
2022-12-15T09:21:28.536Z,5.20
2022-12-15T09:24:00.725Z,5.29
2022-12-15T09:26:31.338Z,5.60
2022-12-15T09:28:58.763Z,5.72
2022-12-15T09:31:32.924Z,5.63
2022-12-15T09:34:01.748Z,5.50
2022-12-15T09:36:30.897Z,5.83
2022-12-15T09:38:59.688Z,6.04
2022-12-15T09:41:28.746Z,6.35
2022-12-15T09:44:07.283Z,6.41
2022-12-15T09:46:50.649Z,6.45
2022-12-15T09:49:30.521Z,6.46
2022-12-15T09:52:10.770Z,6.94
2022-12-15T09:54:41.952Z,7.61
2022-12-15T09:57:24.355Z,7.81
2022-12-15T10:00:15.932Z,7.52
2022-12-15T10:03:02.597Z,7.01
2022-12-15T10:06:07.096Z,6.78
2022-12-15T10:08:57.297Z,7.05
2022-12-15T10:11:30.934Z,7.34
2022-12-15T10:14:37.588Z,6.90
2022-12-15T10:17:21.619Z,7.02
2022-12-15T10:19:50.129Z,6.69
2022-12-15T10:22:25.956Z,6.87
2022-12-15T10:25:11.108Z,7.03
2022-12-15T10:27:57.362Z,7.21
2022-12-15T10:30:25.350Z,7.17
2022-12-15T10:33:03.296Z,7.42
2022-12-15T10:35:36.832Z,7.26
2022-12-15T10:38:07.456Z,7.12
2022-12-15T10:40:56.958Z,7.52
2022-12-15T10:43:30.875Z,7.53
2022-12-15T10:46:07.397Z,7.80
2022-12-15T10:48:37.867Z,7.52
2022-12-15T10:51:37.360Z,7.47
2022-12-15T10:54:07.186Z,7.51
2022-12-15T10:56:35.087Z,7.71
2022-12-15T10:59:22.368Z,8.18
2022-12-15T11:01:51.092Z,8.98
2022-12-15T11:04:34.219Z,9.06
2022-12-15T11:07:04.496Z,9.18
2022-12-15T11:09:39.731Z,9.58
2022-12-15T11:12:39.993Z,9.52
2022-12-15T11:15:22.798Z,10.03
2022-12-15T11:18:03.054Z,10.13
2022-12-15T11:20:39.068Z,10.46
2022-12-15T11:23:18.006Z,10.99
2022-12-15T11:25:56.004Z,10.82
2022-12-15T11:28:34.644Z,11.27
2022-12-15T11:31:13.300Z,11.02
2022-12-15T11:33:40.943Z,10.86
2022-12-15T11:36:21.096Z,11.22
2022-12-15T11:39:08.771Z,11.17
2022-12-15T11:41:59.302Z,11.33
2022-12-15T11:45:02.780Z,11.70
2022-12-15T11:47:53.545Z,12.03
2022-12-15T11:50:42.977Z,12.61
2022-12-15T11:53:19.848Z,12.88
2022-12-15T11:55:50.350Z,12.38
2022-12-15T11:58:26.648Z,13.05
2022-12-15T12:01:10.201Z,12.87
2022-12-15T12:03:55.014Z,13.13
2022-12-15T12:06:38.666Z,13.64
2022-12-15T12:09:28.232Z,14.11
2022-12-15T12:12:20.774Z,14.49
2022-12-15T12:15:20.917Z,14.34
2022-12-15T12:17:53.501Z,14.92
2022-12-15T12:20:34.073Z,15.12
2022-12-15T12:23:06.067Z,15.24
2022-12-15T12:25:41.969Z,14.95
2022-12-15T12:28:27.387Z,14.91
2022-12-15T12:30:59.497Z,15.04
2022-12-15T12:33:40.346Z,15.36
2022-12-15T12:36:12.564Z,15.15
2022-12-15T12:38:50.533Z,14.13
2022-12-15T12:41:50.896Z,13.61
2022-12-15T12:44:43.713Z,13.06
2022-12-15T12:47:18.317Z,12.77
2022-12-15T12:49:53.238Z,12.11
2022-12-15T12:52:32.228Z,11.72
2022-12-15T12:55:14.915Z,11.52
2022-12-15T12:57:44.427Z,11.82
2022-12-15T13:00:12.219Z,12.47
2022-12-15T13:02:45.697Z,12.70
2022-12-15T13:05:38.750Z,13.01
2022-12-15T13:08:06.166Z,13.35
2022-12-15T13:10:45.579Z,12.32
2022-12-15T13:13:31.482Z,13.29
2022-12-15T13:16:09.682Z,13.75
2022-12-15T13:19:04.773Z,13.52
2022-12-15T13:21:42.020Z,12.91
2022-12-15T13:24:33.355Z,12.96
2022-12-15T13:27:20.088Z,12.45
2022-12-15T13:29:57.536Z,12.08
2022-12-15T13:32:33.667Z,11.28
2022-12-15T13:35:13.765Z,11.29
2022-12-15T13:37:50.768Z,11.16
2022-12-15T13:40:36.692Z,9.91
2022-12-15T13:43:04.321Z,9.84
2022-12-15T13:45:42.203Z,9.44
2022-12-15T13:48:20.581Z,9.45
2022-12-15T13:50:56.337Z,9.45
2022-12-15T13:53:27.069Z,9.30
2022-12-15T13:56:04.676Z,8.95
2022-12-15T13:58:41.690Z,8.99
2022-12-15T14:01:31.857Z,8.38
2022-12-15T14:04:21.689Z,8.21
2022-12-15T14:07:03.212Z,8.45
2022-12-15T14:09:35.994Z,8.29
2022-12-15T14:12:07.012Z,8.37
2022-12-15T14:14:43.407Z,8.51
2022-12-15T14:17:15.491Z,8.57
2022-12-15T14:19:45.052Z,8.29
2022-12-15T14:22:24.996Z,8.35
2022-12-15T14:25:26.124Z,8.21
2022-12-15T14:27:53.653Z,8.10
2022-12-15T14:30:33.241Z,8.27
2022-12-15T14:33:08.363Z,8.02
2022-12-15T14:35:55.469Z,7.67
2022-12-15T14:38:27.951Z,7.62
2022-12-15T14:40:57.918Z,7.59
2022-12-15T14:43:29.916Z,7.42
2022-12-15T14:46:11.536Z,7.25
2022-12-15T14:48:43.154Z,7.29
2022-12-15T14:51:14.349Z,7.31
2022-12-15T14:53:44.838Z,7.15
2022-12-15T14:59:21.043Z,7.18
2022-12-15T15:01:59.457Z,7.01
2022-12-15T15:03:16.014Z,7.21
2022-12-15T15:04:31.602Z,7.02
2022-12-15T15:07:05.477Z,6.89
2022-12-15T15:09:44.284Z,6.85
2022-12-15T15:12:21.438Z,6.79
2022-12-15T15:14:54.094Z,6.93
2022-12-15T15:17:34.005Z,6.84
2022-12-15T15:20:05.930Z,6.73
2022-12-15T15:22:36.676Z,6.51
2022-12-15T15:25:23.973Z,6.66
2022-12-15T15:27:51.723Z,6.78
2022-12-15T15:30:23.983Z,6.65
2022-12-15T15:33:02.354Z,6.72
2022-12-15T15:35:31.962Z,6.63
2022-12-15T15:38:05.568Z,6.33
2022-12-15T15:40:32.896Z,6.44
2022-12-15T15:43:00.739Z,6.19
2022-12-15T15:45:28.105Z,6.22
2022-12-15T15:47:56.003Z,6.03
2022-12-15T15:50:29.127Z,6.17
2022-12-15T15:52:57.535Z,6.10
2022-12-15T15:55:33.690Z,6.08
2022-12-15T15:58:11.510Z,5.93
2022-12-15T16:00:40.261Z,6.22
2022-12-15T16:03:08.883Z,6.17
2022-12-15T16:05:36.539Z,6.26
2022-12-15T16:08:05.190Z,6.19
2022-12-15T16:10:33.195Z,6.19
2022-12-15T16:13:02.244Z,5.96
2022-12-15T16:15:32.981Z,6.05
2022-12-15T16:18:00.548Z,6.08
2022-12-15T16:20:30.047Z,5.94
2022-12-15T16:23:01.456Z,5.96
2022-12-15T16:25:41.242Z,5.93
2022-12-15T16:28:17.234Z,5.80
2022-12-15T16:30:45.539Z,5.52
2022-12-15T16:33:14.019Z,5.41
2022-12-15T16:35:43.464Z,4.95
2022-12-15T16:38:29.982Z,4.93
2022-12-15T16:41:04.821Z,4.92
2022-12-15T16:43:37.357Z,5.05
2022-12-15T16:46:07.391Z,4.99
2022-12-15T16:48:35.689Z,5.30
2022-12-15T16:51:07.458Z,5.45
2022-12-15T16:53:39.452Z,5.47
2022-12-15T16:56:08.606Z,5.43
2022-12-15T16:58:36.452Z,5.27
2022-12-15T17:01:04.235Z,5.49
2022-12-15T17:03:31.936Z,5.55
2022-12-15T17:06:04.379Z,5.47
2022-12-15T17:08:45.177Z,5.11
2022-12-15T17:11:20.320Z,5.27
2022-12-15T17:13:51.494Z,5.20
2022-12-15T17:16:21.413Z,5.22
2022-12-15T17:18:50.066Z,5.21
2022-12-15T17:21:21.345Z,5.36
2022-12-15T17:23:53.208Z,5.40
2022-12-15T17:26:38.947Z,5.15
2022-12-15T17:29:09.672Z,5.27
2022-12-15T17:31:37.095Z,5.39
2022-12-15T17:34:26.135Z,5.47
2022-12-15T17:36:55.163Z,5.25
2022-12-15T17:39:23.478Z,5.33
2022-12-15T17:41:59.902Z,5.40
2022-12-15T17:44:34.126Z,5.51
2022-12-15T17:47:03.351Z,5.31
2022-12-15T17:49:35.528Z,5.26
2022-12-15T17:52:14.586Z,5.35
2022-12-15T17:54:42.357Z,5.39
2022-12-15T17:57:11.820Z,5.18
2022-12-15T17:59:39.770Z,4.99
2022-12-15T18:02:13.646Z,5.16
2022-12-15T18:04:42.547Z,5.10
2022-12-15T18:07:23.796Z,5.06
2022-12-15T18:09:53.190Z,5.06
2022-12-15T18:12:23.805Z,5.07
2022-12-15T18:14:54.986Z,5.05
2022-12-15T18:17:23.117Z,5.17
2022-12-15T18:19:50.649Z,5.14
2022-12-15T18:22:23.532Z,4.79
2022-12-15T18:24:53.188Z,4.55
2022-12-15T18:27:21.972Z,4.67
2022-12-15T18:29:49.923Z,4.60
2022-12-15T18:32:19.186Z,4.54
2022-12-15T18:34:46.915Z,4.56
2022-12-15T18:37:19.963Z,4.74
2022-12-15T18:39:47.672Z,4.58
2022-12-15T18:42:17.087Z,4.78
2022-12-15T18:44:53.647Z,4.88
2022-12-15T18:47:23.922Z,4.88
2022-12-15T18:49:51.618Z,4.80
2022-12-15T18:52:22.319Z,4.86
2022-12-15T18:54:51.662Z,4.99
2022-12-15T18:57:36.558Z,4.88
2022-12-15T19:00:13.466Z,4.63
2022-12-15T19:02:41.971Z,4.76
2022-12-15T19:05:28.043Z,4.86
2022-12-15T19:07:58.105Z,4.82
2022-12-15T19:10:28.862Z,4.68
2022-12-15T19:12:58.755Z,4.74
2022-12-15T19:15:26.910Z,4.64
2022-12-15T19:18:12.682Z,4.74
2022-12-15T19:20:59.029Z,4.60
2022-12-15T19:23:26.519Z,4.67
2022-12-15T19:25:54.936Z,4.81
2022-12-15T19:28:24.207Z,4.52
2022-12-15T19:30:52.401Z,4.67
2022-12-15T19:33:21.980Z,4.79
2022-12-15T19:35:51.674Z,4.94
2022-12-15T19:38:29.119Z,4.84
2022-12-15T19:40:58.032Z,4.98
2022-12-15T19:43:26.611Z,5.19
2022-12-15T19:45:54.486Z,4.94
2022-12-15T19:48:24.173Z,5.05
2022-12-15T19:50:54.955Z,5.11
2022-12-15T19:53:26.316Z,4.92
2022-12-15T19:56:01.658Z,4.66
2022-12-15T19:58:31.864Z,4.72
2022-12-15T20:01:05.774Z,4.93
2022-12-15T20:03:34.996Z,4.68
2022-12-15T20:06:04.002Z,4.47
2022-12-15T20:08:38.115Z,4.76
2022-12-15T20:11:16.894Z,4.88
2022-12-15T20:13:44.667Z,4.89
2022-12-15T20:16:15.873Z,4.89
2022-12-15T20:18:52.554Z,5.00
2022-12-15T20:21:22.800Z,5.03
2022-12-15T20:23:58.653Z,4.89
2022-12-15T20:26:28.844Z,5.00
2022-12-15T20:28:57.091Z,5.05
2022-12-15T20:31:25.816Z,5.03
2022-12-15T20:33:53.994Z,5.01
2022-12-15T20:36:25.913Z,5.11
2022-12-15T20:38:54.534Z,5.10
2022-12-15T20:41:25.229Z,5.06
2022-12-15T20:43:57.577Z,5.05
2022-12-15T20:46:35.748Z,5.07
2022-12-15T20:49:03.406Z,4.94
2022-12-15T20:51:33.187Z,4.97
2022-12-15T20:54:02.496Z,4.94
2022-12-15T20:56:29.956Z,4.87
2022-12-15T20:58:58.507Z,4.81
2022-12-15T21:01:29.559Z,4.74
2022-12-15T21:03:58.401Z,4.74
2022-12-15T21:06:28.529Z,4.69
2022-12-15T21:08:56.515Z,4.55
2022-12-15T21:11:27.320Z,4.45
2022-12-15T21:13:59.077Z,4.49
2022-12-15T21:16:29.077Z,4.59
2022-12-15T21:19:19.121Z,4.59
2022-12-15T21:21:52.026Z,4.48
2022-12-15T21:24:23.087Z,4.40
2022-12-15T21:26:51.154Z,4.32
2022-12-15T21:29:21.861Z,4.35
2022-12-15T21:31:49.590Z,4.34
2022-12-15T21:34:17.547Z,4.27
2022-12-15T21:36:47.829Z,4.26
2022-12-15T21:39:36.608Z,4.38
2022-12-15T21:42:16.446Z,4.34
2022-12-15T21:44:44.559Z,4.47
2022-12-15T21:47:48.318Z,4.61
2022-12-15T21:50:17.809Z,4.71
2022-12-15T21:52:46.319Z,4.78
2022-12-15T21:55:18.489Z,4.82
2022-12-15T21:57:47.308Z,4.70
2022-12-15T22:00:17.808Z,4.77
2022-12-15T22:02:46.978Z,4.63
2022-12-15T22:05:20.335Z,4.73
2022-12-15T22:07:49.085Z,4.60
2022-12-15T22:10:18.133Z,4.68
2022-12-15T22:12:57.451Z,4.64
2022-12-15T22:15:29.038Z,4.72
2022-12-15T22:17:56.280Z,4.70
2022-12-15T22:20:25.071Z,4.71
2022-12-15T22:22:52.781Z,4.52
2022-12-15T22:25:22.605Z,4.27
2022-12-15T22:27:50.735Z,4.18
2022-12-15T22:30:24.790Z,4.16
2022-12-15T22:32:52.559Z,4.19
2022-12-15T22:35:25.375Z,4.28
2022-12-15T22:37:56.546Z,4.22
2022-12-15T22:40:25.071Z,4.30
2022-12-15T22:42:57.976Z,4.35
2022-12-15T22:45:25.851Z,4.36
2022-12-15T22:47:55.051Z,4.46
2022-12-15T22:50:25.555Z,4.41
2022-12-15T22:52:55.098Z,4.40
2022-12-15T22:55:23.051Z,4.30
2022-12-15T22:57:59.769Z,4.36
2022-12-15T23:00:27.495Z,4.24
2022-12-15T23:02:54.996Z,4.33
2022-12-15T23:05:22.439Z,4.28
2022-12-15T23:07:50.265Z,4.38
2022-12-15T23:10:39.159Z,4.26
2022-12-15T23:13:07.156Z,4.18
2022-12-15T23:15:53.585Z,4.23
2022-12-15T23:18:22.439Z,4.22
2022-12-15T23:20:51.783Z,4.21
2022-12-15T23:23:19.081Z,4.23
2022-12-15T23:25:46.986Z,4.30
2022-12-15T23:28:14.293Z,4.17
2022-12-15T23:30:41.576Z,4.18
2022-12-15T23:33:09.175Z,4.21
2022-12-15T23:35:40.004Z,4.15
2022-12-15T23:38:07.246Z,4.17
2022-12-15T23:40:35.109Z,4.13
2022-12-15T23:43:02.593Z,4.17
2022-12-15T23:45:29.952Z,4.08
2022-12-15T23:47:57.554Z,4.12
2022-12-15T23:50:24.815Z,4.17
2022-12-15T23:52:52.112Z,4.25
2022-12-15T23:55:19.834Z,4.22
2022-12-15T23:57:47.152Z,4.25
